sensor_id;sensor_type;location;lat;lon;timestamp;P1;durP1;ratioP1;P2;durP2;ratioP2
38479;SDS011;62333;51.980;5.934;2023-07-08T00:00:46;3.40;;;0.70;;
38479;SDS011;62333;51.980;5.934;2023-07-08T00:03:16;1.77;;;0.93;;
38479;SDS011;62333;51.980;5.934;2023-07-08T00:05:43;1.83;;;0.70;;
38479;SDS011;62333;51.980;5.934;2023-07-08T00:08:16;1.65;;;0.77;;
38479;SDS011;62333;51.980;5.934;2023-07-08T00:10:44;2.00;;;0.90;;
38479;SDS011;62333;51.980;5.934;2023-07-08T00:13:10;1.60;;;0.60;;
38479;SDS011;62333;51.980;5.934;2023-07-08T00:15:36;1.85;;;0.70;;
38479;SDS011;62333;51.980;5.934;2023-07-08T00:18:08;1.35;;;0.55;;
38479;SDS011;62333;51.980;5.934;2023-07-08T00:20:38;1.88;;;0.40;;
38479;SDS011;62333;51.980;5.934;2023-07-08T00:23:09;2.25;;;0.75;;
38479;SDS011;62333;51.980;5.934;2023-07-08T00:25:36;2.10;;;0.70;;
38479;SDS011;62333;51.980;5.934;2023-07-08T00:28:01;2.90;;;0.60;;
38479;SDS011;62333;51.980;5.934;2023-07-08T00:30:30;2.25;;;0.50;;
38479;SDS011;62333;51.980;5.934;2023-07-08T00:32:57;2.67;;;0.70;;
38479;SDS011;62333;51.980;5.934;2023-07-08T00:35:26;2.28;;;0.60;;
38479;SDS011;62333;51.980;5.934;2023-07-08T00:37:56;2.05;;;0.98;;
38479;SDS011;62333;51.980;5.934;2023-07-08T00:40:31;1.77;;;0.50;;
38479;SDS011;62333;51.980;5.934;2023-07-08T00:42:59;2.72;;;1.02;;
38479;SDS011;62333;51.980;5.934;2023-07-08T00:48:02;2.75;;;0.60;;
38479;SDS011;62333;51.980;5.934;2023-07-08T00:50:33;2.10;;;0.95;;
38479;SDS011;62333;51.980;5.934;2023-07-08T00:56:02;2.28;;;0.50;;
38479;SDS011;62333;51.980;5.934;2023-07-08T00:58:35;2.17;;;0.93;;
38479;SDS011;62333;51.980;5.934;2023-07-08T01:01:05;1.83;;;1.08;;
38479;SDS011;62333;51.980;5.934;2023-07-08T01:03:32;3.75;;;0.73;;
38479;SDS011;62333;51.980;5.934;2023-07-08T01:06:01;2.20;;;0.68;;
38479;SDS011;62333;51.980;5.934;2023-07-08T01:08:29;2.70;;;0.98;;
38479;SDS011;62333;51.980;5.934;2023-07-08T01:10:57;2.40;;;0.60;;
38479;SDS011;62333;51.980;5.934;2023-07-08T01:13:26;1.77;;;0.80;;
38479;SDS011;62333;51.980;5.934;2023-07-08T01:15:56;2.72;;;1.20;;
38479;SDS011;62333;51.980;5.934;2023-07-08T01:18:23;3.40;;;0.50;;
38479;SDS011;62333;51.980;5.934;2023-07-08T01:20:49;1.70;;;0.50;;
38479;SDS011;62333;51.980;5.934;2023-07-08T01:23:16;1.33;;;0.50;;
38479;SDS011;62333;51.980;5.934;2023-07-08T01:25:43;3.75;;;0.88;;
38479;SDS011;62333;51.980;5.934;2023-07-08T01:28:09;4.28;;;0.93;;
38479;SDS011;62333;51.980;5.934;2023-07-08T01:30:35;1.35;;;0.50;;
38479;SDS011;62333;51.980;5.934;2023-07-08T01:33:04;2.05;;;0.50;;
38479;SDS011;62333;51.980;5.934;2023-07-08T01:35:35;3.00;;;0.80;;
38479;SDS011;62333;51.980;5.934;2023-07-08T01:38:01;2.75;;;1.25;;
38479;SDS011;62333;51.980;5.934;2023-07-08T01:40:34;1.42;;;0.50;;
38479;SDS011;62333;51.980;5.934;2023-07-08T01:43:02;2.65;;;0.98;;
38479;SDS011;62333;51.980;5.934;2023-07-08T01:45:31;2.15;;;0.50;;
38479;SDS011;62333;51.980;5.934;2023-07-08T01:48:05;1.80;;;0.70;;
38479;SDS011;62333;51.980;5.934;2023-07-08T01:50:35;2.03;;;0.68;;
38479;SDS011;62333;51.980;5.934;2023-07-08T01:53:06;2.78;;;0.55;;
38479;SDS011;62333;51.980;5.934;2023-07-08T01:55:36;2.90;;;0.43;;
38479;SDS011;62333;51.980;5.934;2023-07-08T01:58:01;1.48;;;0.60;;
38479;SDS011;62333;51.980;5.934;2023-07-08T02:00:27;5.32;;;0.70;;
38479;SDS011;62333;51.980;5.934;2023-07-08T02:02:52;1.55;;;0.70;;
38479;SDS011;62333;51.980;5.934;2023-07-08T02:05:18;2.13;;;0.68;;
38479;SDS011;62333;51.980;5.934;2023-07-08T02:07:44;1.90;;;0.73;;
38479;SDS011;62333;51.980;5.934;2023-07-08T02:10:09;1.73;;;0.60;;
38479;SDS011;62333;51.980;5.934;2023-07-08T02:12:35;1.83;;;0.68;;
38479;SDS011;62333;51.980;5.934;2023-07-08T02:15:01;3.65;;;0.68;;
38479;SDS011;62333;51.980;5.934;2023-07-08T02:17:27;3.88;;;0.77;;
38479;SDS011;62333;51.980;5.934;2023-07-08T02:19:54;3.88;;;1.08;;
38479;SDS011;62333;51.980;5.934;2023-07-08T02:22:20;2.75;;;0.60;;
38479;SDS011;62333;51.980;5.934;2023-07-08T02:24:46;4.30;;;0.75;;
38479;SDS011;62333;51.980;5.934;2023-07-08T02:27:12;7.60;;;1.17;;
38479;SDS011;62333;51.980;5.934;2023-07-08T02:29:38;1.75;;;0.65;;
38479;SDS011;62333;51.980;5.934;2023-07-08T02:32:04;2.15;;;0.60;;
38479;SDS011;62333;51.980;5.934;2023-07-08T02:34:30;2.63;;;0.63;;
38479;SDS011;62333;51.980;5.934;2023-07-08T02:36:56;1.45;;;0.70;;
38479;SDS011;62333;51.980;5.934;2023-07-08T02:39:22;2.58;;;0.77;;
38479;SDS011;62333;51.980;5.934;2023-07-08T02:41:48;2.05;;;0.68;;
38479;SDS011;62333;51.980;5.934;2023-07-08T02:44:13;4.72;;;0.73;;
38479;SDS011;62333;51.980;5.934;2023-07-08T02:46:39;1.80;;;0.65;;
38479;SDS011;62333;51.980;5.934;2023-07-08T02:49:05;1.55;;;0.60;;
38479;SDS011;62333;51.980;5.934;2023-07-08T02:51:31;2.65;;;0.80;;
38479;SDS011;62333;51.980;5.934;2023-07-08T02:53:57;2.95;;;1.05;;
38479;SDS011;62333;51.980;5.934;2023-07-08T02:56:22;2.13;;;0.68;;
38479;SDS011;62333;51.980;5.934;2023-07-08T02:58:48;1.77;;;0.75;;
38479;SDS011;62333;51.980;5.934;2023-07-08T03:01:14;3.63;;;0.90;;
38479;SDS011;62333;51.980;5.934;2023-07-08T03:03:46;2.42;;;1.00;;
38479;SDS011;62333;51.980;5.934;2023-07-08T03:06:12;3.53;;;1.15;;
38479;SDS011;62333;51.980;5.934;2023-07-08T03:08:39;3.03;;;0.63;;
38479;SDS011;62333;51.980;5.934;2023-07-08T03:11:06;2.03;;;0.73;;
38479;SDS011;62333;51.980;5.934;2023-07-08T03:13:33;1.15;;;0.50;;
38479;SDS011;62333;51.980;5.934;2023-07-08T03:16:00;2.28;;;0.70;;
38479;SDS011;62333;51.980;5.934;2023-07-08T03:18:27;4.13;;;0.80;;
38479;SDS011;62333;51.980;5.934;2023-07-08T03:20:54;2.13;;;0.40;;
38479;SDS011;62333;51.980;5.934;2023-07-08T03:23:21;4.18;;;0.90;;
38479;SDS011;62333;51.980;5.934;2023-07-08T03:25:47;3.40;;;1.05;;
38479;SDS011;62333;51.980;5.934;2023-07-08T03:28:13;1.77;;;0.90;;
38479;SDS011;62333;51.980;5.934;2023-07-08T03:30:40;1.10;;;0.40;;
38479;SDS011;62333;51.980;5.934;2023-07-08T03:33:07;1.98;;;0.57;;
38479;SDS011;62333;51.980;5.934;2023-07-08T03:35:35;1.85;;;0.80;;
38479;SDS011;62333;51.980;5.934;2023-07-08T03:38:01;4.72;;;0.80;;
38479;SDS011;62333;51.980;5.934;2023-07-08T03:40:27;2.47;;;0.93;;
38479;SDS011;62333;51.980;5.934;2023-07-08T03:42:52;2.05;;;0.60;;
38479;SDS011;62333;51.980;5.934;2023-07-08T03:45:18;1.98;;;0.50;;
38479;SDS011;62333;51.980;5.934;2023-07-08T03:47:43;1.52;;;0.63;;
38479;SDS011;62333;51.980;5.934;2023-07-08T03:50:13;1.67;;;0.70;;
38479;SDS011;62333;51.980;5.934;2023-07-08T03:52:47;1.65;;;0.60;;
38479;SDS011;62333;51.980;5.934;2023-07-08T03:55:14;1.15;;;0.55;;
38479;SDS011;62333;51.980;5.934;2023-07-08T03:57:40;3.42;;;0.80;;
38479;SDS011;62333;51.980;5.934;2023-07-08T04:00:06;2.05;;;0.73;;
38479;SDS011;62333;51.980;5.934;2023-07-08T04:02:34;1.67;;;0.50;;
38479;SDS011;62333;51.980;5.934;2023-07-08T04:05:01;1.50;;;0.65;;
38479;SDS011;62333;51.980;5.934;2023-07-08T04:07:27;1.77;;;0.60;;
38479;SDS011;62333;51.980;5.934;2023-07-08T04:09:53;2.70;;;0.70;;
38479;SDS011;62333;51.980;5.934;2023-07-08T04:12:18;1.55;;;0.50;;
38479;SDS011;62333;51.980;5.934;2023-07-08T04:14:44;2.30;;;0.80;;
38479;SDS011;62333;51.980;5.934;2023-07-08T04:17:10;1.98;;;0.80;;
38479;SDS011;62333;51.980;5.934;2023-07-08T04:19:37;1.38;;;0.60;;
38479;SDS011;62333;51.980;5.934;2023-07-08T04:22:04;2.47;;;0.57;;
38479;SDS011;62333;51.980;5.934;2023-07-08T04:24:30;3.47;;;0.50;;
38479;SDS011;62333;51.980;5.934;2023-07-08T04:26:56;1.90;;;0.55;;
38479;SDS011;62333;51.980;5.934;2023-07-08T04:29:23;2.70;;;0.85;;
38479;SDS011;62333;51.980;5.934;2023-07-08T04:31:49;2.63;;;0.75;;
38479;SDS011;62333;51.980;5.934;2023-07-08T04:34:15;1.65;;;0.55;;
38479;SDS011;62333;51.980;5.934;2023-07-08T04:36:41;2.53;;;0.65;;
38479;SDS011;62333;51.980;5.934;2023-07-08T04:39:07;3.00;;;0.73;;
38479;SDS011;62333;51.980;5.934;2023-07-08T04:41:35;3.67;;;0.82;;
38479;SDS011;62333;51.980;5.934;2023-07-08T04:44:05;2.83;;;0.80;;
38479;SDS011;62333;51.980;5.934;2023-07-08T04:46:36;4.32;;;0.75;;
38479;SDS011;62333;51.980;5.934;2023-07-08T04:49:05;2.83;;;0.93;;
38479;SDS011;62333;51.980;5.934;2023-07-08T04:51:31;2.03;;;1.13;;
38479;SDS011;62333;51.980;5.934;2023-07-08T04:53:57;6.60;;;0.77;;
38479;SDS011;62333;51.980;5.934;2023-07-08T04:56:25;1.92;;;0.70;;
38479;SDS011;62333;51.980;5.934;2023-07-08T04:59:01;1.80;;;0.68;;
38479;SDS011;62333;51.980;5.934;2023-07-08T05:01:27;2.67;;;0.85;;
38479;SDS011;62333;51.980;5.934;2023-07-08T05:03:52;4.32;;;1.00;;
38479;SDS011;62333;51.980;5.934;2023-07-08T05:06:18;2.80;;;1.48;;
38479;SDS011;62333;51.980;5.934;2023-07-08T05:08:44;2.00;;;0.73;;
38479;SDS011;62333;51.980;5.934;2023-07-08T05:11:09;1.77;;;0.50;;
38479;SDS011;62333;51.980;5.934;2023-07-08T05:13:35;3.17;;;0.90;;
38479;SDS011;62333;51.980;5.934;2023-07-08T05:16:01;1.92;;;1.02;;
38479;SDS011;62333;51.980;5.934;2023-07-08T05:18:26;3.08;;;0.45;;
38479;SDS011;62333;51.980;5.934;2023-07-08T05:20:52;3.85;;;0.60;;
38479;SDS011;62333;51.980;5.934;2023-07-08T05:23:19;2.15;;;0.50;;
38479;SDS011;62333;51.980;5.934;2023-07-08T05:25:45;3.00;;;1.10;;
38479;SDS011;62333;51.980;5.934;2023-07-08T05:28:11;1.95;;;0.82;;
38479;SDS011;62333;51.980;5.934;2023-07-08T05:30:39;2.50;;;0.80;;
38479;SDS011;62333;51.980;5.934;2023-07-08T05:33:05;3.13;;;0.60;;
38479;SDS011;62333;51.980;5.934;2023-07-08T05:35:31;1.60;;;1.00;;
38479;SDS011;62333;51.980;5.934;2023-07-08T05:37:57;2.20;;;0.80;;
38479;SDS011;62333;51.980;5.934;2023-07-08T05:40:23;2.05;;;0.55;;
38479;SDS011;62333;51.980;5.934;2023-07-08T05:42:48;3.60;;;1.15;;
38479;SDS011;62333;51.980;5.934;2023-07-08T05:45:14;4.75;;;1.10;;
38479;SDS011;62333;51.980;5.934;2023-07-08T05:47:40;3.58;;;1.15;;
38479;SDS011;62333;51.980;5.934;2023-07-08T05:50:05;1.58;;;0.55;;
38479;SDS011;62333;51.980;5.934;2023-07-08T05:52:32;2.17;;;0.57;;
38479;SDS011;62333;51.980;5.934;2023-07-08T05:54:57;1.75;;;0.60;;
38479;SDS011;62333;51.980;5.934;2023-07-08T05:57:23;4.05;;;0.70;;
38479;SDS011;62333;51.980;5.934;2023-07-08T05:59:49;2.50;;;1.17;;
38479;SDS011;62333;51.980;5.934;2023-07-08T06:02:16;1.85;;;0.90;;
38479;SDS011;62333;51.980;5.934;2023-07-08T06:04:42;1.88;;;0.75;;
38479;SDS011;62333;51.980;5.934;2023-07-08T06:07:07;1.90;;;0.43;;
38479;SDS011;62333;51.980;5.934;2023-07-08T06:09:33;1.33;;;0.50;;
38479;SDS011;62333;51.980;5.934;2023-07-08T06:11:59;4.78;;;0.95;;
38479;SDS011;62333;51.980;5.934;2023-07-08T06:14:26;4.07;;;0.80;;
38479;SDS011;62333;51.980;5.934;2023-07-08T06:16:52;1.95;;;0.57;;
38479;SDS011;62333;51.980;5.934;2023-07-08T06:19:19;4.80;;;0.90;;
38479;SDS011;62333;51.980;5.934;2023-07-08T06:21:46;2.67;;;1.13;;
38479;SDS011;62333;51.980;5.934;2023-07-08T06:24:11;1.88;;;0.70;;
38479;SDS011;62333;51.980;5.934;2023-07-08T06:26:37;1.80;;;0.70;;
38479;SDS011;62333;51.980;5.934;2023-07-08T06:29:03;1.73;;;0.70;;
38479;SDS011;62333;51.980;5.934;2023-07-08T06:31:29;2.95;;;1.00;;
38479;SDS011;62333;51.980;5.934;2023-07-08T06:33:55;4.55;;;1.00;;
38479;SDS011;62333;51.980;5.934;2023-07-08T06:36:21;3.20;;;1.25;;
38479;SDS011;62333;51.980;5.934;2023-07-08T06:38:47;1.58;;;0.82;;
38479;SDS011;62333;51.980;5.934;2023-07-08T06:41:13;2.40;;;0.70;;
38479;SDS011;62333;51.980;5.934;2023-07-08T06:43:39;2.53;;;0.80;;
38479;SDS011;62333;51.980;5.934;2023-07-08T06:46:05;1.48;;;0.60;;
38479;SDS011;62333;51.980;5.934;2023-07-08T06:48:31;1.67;;;0.73;;
38479;SDS011;62333;51.980;5.934;2023-07-08T06:50:57;2.67;;;0.73;;
38479;SDS011;62333;51.980;5.934;2023-07-08T06:53:23;2.60;;;0.90;;
38479;SDS011;62333;51.980;5.934;2023-07-08T06:55:49;2.90;;;0.77;;
38479;SDS011;62333;51.980;5.934;2023-07-08T06:58:15;2.47;;;0.75;;
38479;SDS011;62333;51.980;5.934;2023-07-08T07:00:45;3.38;;;1.00;;
38479;SDS011;62333;51.980;5.934;2023-07-08T07:03:11;2.95;;;0.60;;
38479;SDS011;62333;51.980;5.934;2023-07-08T07:05:37;2.90;;;0.75;;
38479;SDS011;62333;51.980;5.934;2023-07-08T07:08:04;10.57;;;2.90;;
38479;SDS011;62333;51.980;5.934;2023-07-08T07:10:30;2.70;;;0.82;;
38479;SDS011;62333;51.980;5.934;2023-07-08T07:12:56;1.88;;;0.50;;
38479;SDS011;62333;51.980;5.934;2023-07-08T07:15:21;2.90;;;1.02;;
38479;SDS011;62333;51.980;5.934;2023-07-08T07:17:47;7.40;;;1.27;;
38479;SDS011;62333;51.980;5.934;2023-07-08T07:20:13;2.92;;;1.45;;
38479;SDS011;62333;51.980;5.934;2023-07-08T07:22:38;2.60;;;1.02;;
38479;SDS011;62333;51.980;5.934;2023-07-08T07:25:05;2.95;;;1.00;;
38479;SDS011;62333;51.980;5.934;2023-07-08T07:27:31;2.38;;;0.60;;
38479;SDS011;62333;51.980;5.934;2023-07-08T07:29:57;1.60;;;0.77;;
38479;SDS011;62333;51.980;5.934;2023-07-08T07:32:26;2.45;;;0.80;;
38479;SDS011;62333;51.980;5.934;2023-07-08T07:34:53;2.42;;;0.77;;
38479;SDS011;62333;51.980;5.934;2023-07-08T07:37:19;3.10;;;1.52;;
38479;SDS011;62333;51.980;5.934;2023-07-08T07:39:46;2.47;;;1.17;;
38479;SDS011;62333;51.980;5.934;2023-07-08T07:42:13;2.83;;;0.82;;
38479;SDS011;62333;51.980;5.934;2023-07-08T07:44:40;3.10;;;1.17;;
38479;SDS011;62333;51.980;5.934;2023-07-08T07:47:06;3.10;;;0.70;;
38479;SDS011;62333;51.980;5.934;2023-07-08T07:49:33;2.05;;;0.73;;
38479;SDS011;62333;51.980;5.934;2023-07-08T07:51:58;3.63;;;0.68;;
38479;SDS011;62333;51.980;5.934;2023-07-08T07:54:24;3.85;;;1.08;;
38479;SDS011;62333;51.980;5.934;2023-07-08T07:56:50;1.52;;;0.70;;
38479;SDS011;62333;51.980;5.934;2023-07-08T07:59:16;5.13;;;1.13;;
38479;SDS011;62333;51.980;5.934;2023-07-08T08:01:42;5.75;;;0.60;;
38479;SDS011;62333;51.980;5.934;2023-07-08T08:04:09;1.70;;;0.70;;
38479;SDS011;62333;51.980;5.934;2023-07-08T08:06:35;4.43;;;1.42;;
38479;SDS011;62333;51.980;5.934;2023-07-08T08:09:02;1.85;;;0.70;;
38479;SDS011;62333;51.980;5.934;2023-07-08T08:11:29;2.33;;;0.80;;
38479;SDS011;62333;51.980;5.934;2023-07-08T08:13:55;2.78;;;1.23;;
38479;SDS011;62333;51.980;5.934;2023-07-08T08:16:21;2.33;;;1.00;;
38479;SDS011;62333;51.980;5.934;2023-07-08T08:18:47;2.00;;;0.70;;
38479;SDS011;62333;51.980;5.934;2023-07-08T08:21:13;2.35;;;0.63;;
38479;SDS011;62333;51.980;5.934;2023-07-08T08:23:39;4.50;;;1.27;;
38479;SDS011;62333;51.980;5.934;2023-07-08T08:26:05;4.18;;;1.00;;
38479;SDS011;62333;51.980;5.934;2023-07-08T08:28:30;3.00;;;1.00;;
38479;SDS011;62333;51.980;5.934;2023-07-08T08:30:56;1.85;;;0.80;;
38479;SDS011;62333;51.980;5.934;2023-07-08T08:33:22;2.92;;;1.25;;
38479;SDS011;62333;51.980;5.934;2023-07-08T08:35:47;2.55;;;0.82;;
38479;SDS011;62333;51.980;5.934;2023-07-08T08:38:13;2.88;;;0.80;;
38479;SDS011;62333;51.980;5.934;2023-07-08T08:40:39;2.53;;;1.27;;
38479;SDS011;62333;51.980;5.934;2023-07-08T08:43:08;2.50;;;0.90;;
38479;SDS011;62333;51.980;5.934;2023-07-08T08:48:30;6.35;;;2.05;;
38479;SDS011;62333;51.980;5.934;2023-07-08T08:51:12;3.70;;;1.33;;
38479;SDS011;62333;51.980;5.934;2023-07-08T08:53:40;1.75;;;0.63;;
38479;SDS011;62333;51.980;5.934;2023-07-08T08:56:10;3.13;;;0.68;;
38479;SDS011;62333;51.980;5.934;2023-07-08T08:58:47;4.00;;;1.63;;
38479;SDS011;62333;51.980;5.934;2023-07-08T09:03:52;2.20;;;0.88;;
38479;SDS011;62333;51.980;5.934;2023-07-08T09:06:20;2.45;;;1.30;;
38479;SDS011;62333;51.980;5.934;2023-07-08T09:08:46;3.17;;;1.65;;
38479;SDS011;62333;51.980;5.934;2023-07-08T09:11:27;9.18;;;1.85;;
38479;SDS011;62333;51.980;5.934;2023-07-08T09:14:23;1.80;;;0.80;;
38479;SDS011;62333;51.980;5.934;2023-07-08T09:28:04;1.92;;;0.90;;
38479;SDS011;62333;51.980;5.934;2023-07-08T09:30:29;1.92;;;0.80;;
38479;SDS011;62333;51.980;5.934;2023-07-08T09:32:56;1.77;;;0.70;;
38479;SDS011;62333;51.980;5.934;2023-07-08T09:35:27;6.28;;;1.30;;
38479;SDS011;62333;51.980;5.934;2023-07-08T09:38:06;3.33;;;1.17;;
38479;SDS011;62333;51.980;5.934;2023-07-08T09:40:33;3.75;;;1.38;;
38479;SDS011;62333;51.980;5.934;2023-07-08T09:46:02;5.45;;;0.90;;
38479;SDS011;62333;51.980;5.934;2023-07-08T09:48:29;4.97;;;2.38;;
38479;SDS011;62333;51.980;5.934;2023-07-08T09:50:58;4.53;;;1.40;;
38479;SDS011;62333;51.980;5.934;2023-07-08T09:53:24;1.75;;;0.93;;
38479;SDS011;62333;51.980;5.934;2023-07-08T09:55:54;3.42;;;1.30;;
38479;SDS011;62333;51.980;5.934;2023-07-08T09:58:24;4.18;;;1.52;;
38479;SDS011;62333;51.980;5.934;2023-07-08T10:00:56;3.55;;;2.03;;
38479;SDS011;62333;51.980;5.934;2023-07-08T10:03:28;4.93;;;1.13;;
38479;SDS011;62333;51.980;5.934;2023-07-08T10:05:56;4.03;;;1.67;;
38479;SDS011;62333;51.980;5.934;2023-07-08T10:08:28;4.13;;;1.48;;
38479;SDS011;62333;51.980;5.934;2023-07-08T10:11:09;4.82;;;1.20;;
38479;SDS011;62333;51.980;5.934;2023-07-08T10:13:51;3.55;;;1.60;;
38479;SDS011;62333;51.980;5.934;2023-07-08T10:16:32;3.88;;;1.83;;
38479;SDS011;62333;51.980;5.934;2023-07-08T10:18:59;3.17;;;1.67;;
38479;SDS011;62333;51.980;5.934;2023-07-08T10:21:34;4.35;;;1.70;;
38479;SDS011;62333;51.980;5.934;2023-07-08T10:26:44;3.35;;;1.33;;
38479;SDS011;62333;51.980;5.934;2023-07-08T10:29:18;2.65;;;1.75;;
38479;SDS011;62333;51.980;5.934;2023-07-08T10:31:53;5.57;;;1.27;;
38479;SDS011;62333;51.980;5.934;2023-07-08T10:34:26;3.90;;;1.98;;
38479;SDS011;62333;51.980;5.934;2023-07-08T10:45:19;4.25;;;1.33;;
38479;SDS011;62333;51.980;5.934;2023-07-08T10:56:37;2.53;;;1.00;;
38479;SDS011;62333;51.980;5.934;2023-07-08T10:59:19;3.78;;;1.40;;
38479;SDS011;62333;51.980;5.934;2023-07-08T11:04:37;8.77;;;3.83;;
38479;SDS011;62333;51.980;5.934;2023-07-08T11:07:39;3.60;;;2.25;;
38479;SDS011;62333;51.980;5.934;2023-07-08T11:10:25;6.50;;;1.27;;
38479;SDS011;62333;51.980;5.934;2023-07-08T11:13:02;2.80;;;1.08;;
38479;SDS011;62333;51.980;5.934;2023-07-08T11:15:33;4.15;;;1.60;;
38479;SDS011;62333;51.980;5.934;2023-07-08T11:21:27;5.40;;;1.52;;
38479;SDS011;62333;51.980;5.934;2023-07-08T11:23:47;4.35;;;1.65;;
38479;SDS011;62333;51.980;5.934;2023-07-08T11:26:24;4.55;;;1.50;;
38479;SDS011;62333;51.980;5.934;2023-07-08T11:31:42;3.08;;;1.58;;
38479;SDS011;62333;51.980;5.934;2023-07-08T11:34:08;4.32;;;1.70;;
38479;SDS011;62333;51.980;5.934;2023-07-08T11:36:37;6.60;;;1.42;;
38479;SDS011;62333;51.980;5.934;2023-07-08T11:39:04;4.25;;;1.90;;
38479;SDS011;62333;51.980;5.934;2023-07-08T11:41:52;3.10;;;2.00;;
38479;SDS011;62333;51.980;5.934;2023-07-08T11:44:28;3.90;;;1.95;;
38479;SDS011;62333;51.980;5.934;2023-07-08T11:46:54;3.45;;;1.75;;
38479;SDS011;62333;51.980;5.934;2023-07-08T11:49:21;5.38;;;1.45;;
38479;SDS011;62333;51.980;5.934;2023-07-08T11:51:48;3.08;;;1.55;;
38479;SDS011;62333;51.980;5.934;2023-07-08T11:54:27;5.95;;;2.50;;
38479;SDS011;62333;51.980;5.934;2023-07-08T11:59:32;4.50;;;1.45;;
38479;SDS011;62333;51.980;5.934;2023-07-08T12:07:30;4.55;;;1.88;;
38479;SDS011;62333;51.980;5.934;2023-07-08T12:09:58;3.75;;;2.20;;
38479;SDS011;62333;51.980;5.934;2023-07-08T12:12:45;5.78;;;2.65;;
38479;SDS011;62333;51.980;5.934;2023-07-08T12:15:22;4.90;;;2.03;;
38479;SDS011;62333;51.980;5.934;2023-07-08T12:17:50;3.70;;;1.40;;
38479;SDS011;62333;51.980;5.934;2023-07-08T12:22:55;3.40;;;1.98;;
38479;SDS011;62333;51.980;5.934;2023-07-08T12:25:22;5.63;;;1.55;;
38479;SDS011;62333;51.980;5.934;2023-07-08T12:27:52;4.15;;;1.45;;
38479;SDS011;62333;51.980;5.934;2023-07-08T12:30:17;3.40;;;1.50;;
38479;SDS011;62333;51.980;5.934;2023-07-08T12:32:43;3.30;;;1.80;;
38479;SDS011;62333;51.980;5.934;2023-07-08T12:35:17;3.35;;;1.30;;
38479;SDS011;62333;51.980;5.934;2023-07-08T12:37:45;3.50;;;1.42;;
38479;SDS011;62333;51.980;5.934;2023-07-08T12:40:11;2.60;;;1.30;;
38479;SDS011;62333;51.980;5.934;2023-07-08T12:42:37;4.85;;;1.83;;
38479;SDS011;62333;51.980;5.934;2023-07-08T12:45:08;3.75;;;1.83;;
38479;SDS011;62333;51.980;5.934;2023-07-08T12:47:39;3.40;;;1.90;;
38479;SDS011;62333;51.980;5.934;2023-07-08T12:50:05;2.97;;;1.83;;
38479;SDS011;62333;51.980;5.934;2023-07-08T12:52:33;5.05;;;1.73;;
38479;SDS011;62333;51.980;5.934;2023-07-08T12:54:58;2.67;;;1.25;;
38479;SDS011;62333;51.980;5.934;2023-07-08T12:57:24;3.28;;;1.30;;
38479;SDS011;62333;51.980;5.934;2023-07-08T12:59:51;3.25;;;1.55;;
38479;SDS011;62333;51.980;5.934;2023-07-08T13:02:18;4.30;;;1.75;;
38479;SDS011;62333;51.980;5.934;2023-07-08T13:04:49;5.80;;;2.33;;
38479;SDS011;62333;51.980;5.934;2023-07-08T13:07:39;3.08;;;1.40;;
38479;SDS011;62333;51.980;5.934;2023-07-08T13:10:06;2.63;;;1.60;;
38479;SDS011;62333;51.980;5.934;2023-07-08T13:12:40;3.92;;;2.30;;
38479;SDS011;62333;51.980;5.934;2023-07-08T13:15:09;3.08;;;1.52;;
38479;SDS011;62333;51.980;5.934;2023-07-08T13:17:44;3.45;;;1.73;;
38479;SDS011;62333;51.980;5.934;2023-07-08T13:20:13;5.38;;;1.67;;
38479;SDS011;62333;51.980;5.934;2023-07-08T13:22:41;2.72;;;1.58;;
38479;SDS011;62333;51.980;5.934;2023-07-08T13:25:18;5.47;;;2.55;;
38479;SDS011;62333;51.980;5.934;2023-07-08T13:27:55;4.32;;;2.00;;
38479;SDS011;62333;51.980;5.934;2023-07-08T13:30:27;3.88;;;1.80;;
38479;SDS011;62333;51.980;5.934;2023-07-08T13:32:55;4.72;;;1.77;;
38479;SDS011;62333;51.980;5.934;2023-07-08T13:37:52;3.95;;;1.58;;
38479;SDS011;62333;51.980;5.934;2023-07-08T13:40:19;4.20;;;1.77;;
38479;SDS011;62333;51.980;5.934;2023-07-08T13:42:48;4.18;;;2.08;;
38479;SDS011;62333;51.980;5.934;2023-07-08T13:45:16;3.95;;;2.25;;
38479;SDS011;62333;51.980;5.934;2023-07-08T13:48:11;3.75;;;2.13;;
38479;SDS011;62333;51.980;5.934;2023-07-08T13:51:06;7.35;;;3.00;;
38479;SDS011;62333;51.980;5.934;2023-07-08T13:53:54;7.20;;;3.28;;
38479;SDS011;62333;51.980;5.934;2023-07-08T13:58:54;4.88;;;2.58;;
38479;SDS011;62333;51.980;5.934;2023-07-08T14:01:54;7.68;;;2.83;;
38479;SDS011;62333;51.980;5.934;2023-07-08T14:04:28;4.45;;;2.00;;
38479;SDS011;62333;51.980;5.934;2023-07-08T14:06:58;4.70;;;2.20;;
38479;SDS011;62333;51.980;5.934;2023-07-08T14:09:24;4.85;;;2.45;;
38479;SDS011;62333;51.980;5.934;2023-07-08T14:11:50;3.90;;;2.42;;
38479;SDS011;62333;51.980;5.934;2023-07-08T14:14:17;5.45;;;2.13;;
38479;SDS011;62333;51.980;5.934;2023-07-08T14:16:47;7.43;;;2.38;;
38479;SDS011;62333;51.980;5.934;2023-07-08T14:19:23;5.55;;;1.95;;
38479;SDS011;62333;51.980;5.934;2023-07-08T14:21:57;3.47;;;1.52;;
38479;SDS011;62333;51.980;5.934;2023-07-08T14:24:26;5.32;;;2.28;;
38479;SDS011;62333;51.980;5.934;2023-07-08T14:26:52;3.80;;;2.30;;
38479;SDS011;62333;51.980;5.934;2023-07-08T14:29:18;3.65;;;2.08;;
38479;SDS011;62333;51.980;5.934;2023-07-08T14:31:44;6.25;;;3.38;;
38479;SDS011;62333;51.980;5.934;2023-07-08T14:34:16;4.18;;;2.28;;
38479;SDS011;62333;51.980;5.934;2023-07-08T14:36:47;5.93;;;2.40;;
38479;SDS011;62333;51.980;5.934;2023-07-08T14:39:13;3.90;;;1.95;;
38479;SDS011;62333;51.980;5.934;2023-07-08T14:41:41;6.70;;;2.50;;
38479;SDS011;62333;51.980;5.934;2023-07-08T14:44:18;4.63;;;2.60;;
38479;SDS011;62333;51.980;5.934;2023-07-08T14:46:48;6.35;;;2.63;;
38479;SDS011;62333;51.980;5.934;2023-07-08T14:49:18;4.80;;;2.53;;
38479;SDS011;62333;51.980;5.934;2023-07-08T14:51:45;5.38;;;2.70;;
38479;SDS011;62333;51.980;5.934;2023-07-08T14:54:11;10.70;;;4.03;;
38479;SDS011;62333;51.980;5.934;2023-07-08T14:56:37;8.57;;;3.55;;
38479;SDS011;62333;51.980;5.934;2023-07-08T14:59:04;4.05;;;1.60;;
38479;SDS011;62333;51.980;5.934;2023-07-08T15:01:30;5.25;;;2.22;;
38479;SDS011;62333;51.980;5.934;2023-07-08T15:03:56;5.65;;;3.22;;
38479;SDS011;62333;51.980;5.934;2023-07-08T15:06:23;5.13;;;2.72;;
38479;SDS011;62333;51.980;5.934;2023-07-08T15:08:49;4.50;;;2.53;;
38479;SDS011;62333;51.980;5.934;2023-07-08T15:11:15;4.13;;;2.03;;
38479;SDS011;62333;51.980;5.934;2023-07-08T15:13:43;4.30;;;2.40;;
38479;SDS011;62333;51.980;5.934;2023-07-08T15:16:13;5.00;;;3.65;;
38479;SDS011;62333;51.980;5.934;2023-07-08T15:18:41;4.97;;;2.67;;
38479;SDS011;62333;51.980;5.934;2023-07-08T15:21:14;4.40;;;1.90;;
38479;SDS011;62333;51.980;5.934;2023-07-08T15:23:40;3.75;;;1.92;;
38479;SDS011;62333;51.980;5.934;2023-07-08T15:26:10;3.60;;;2.28;;
38479;SDS011;62333;51.980;5.934;2023-07-08T15:28:47;5.13;;;2.05;;
38479;SDS011;62333;51.980;5.934;2023-07-08T15:31:16;3.80;;;1.60;;
38479;SDS011;62333;51.980;5.934;2023-07-08T15:33:51;3.92;;;2.17;;
38479;SDS011;62333;51.980;5.934;2023-07-08T15:36:17;4.72;;;1.48;;
38479;SDS011;62333;51.980;5.934;2023-07-08T15:38:44;4.38;;;1.45;;
38479;SDS011;62333;51.980;5.934;2023-07-08T15:43:48;5.40;;;1.63;;
38479;SDS011;62333;51.980;5.934;2023-07-08T15:46:17;6.65;;;1.55;;
38479;SDS011;62333;51.980;5.934;2023-07-08T15:48:43;3.30;;;1.80;;
38479;SDS011;62333;51.980;5.934;2023-07-08T15:51:12;3.35;;;1.70;;
38479;SDS011;62333;51.980;5.934;2023-07-08T15:53:39;3.80;;;1.73;;
38479;SDS011;62333;51.980;5.934;2023-07-08T15:56:05;4.95;;;1.35;;
38479;SDS011;62333;51.980;5.934;2023-07-08T15:58:35;5.93;;;2.35;;
38479;SDS011;62333;51.980;5.934;2023-07-08T16:01:01;5.03;;;2.63;;
38479;SDS011;62333;51.980;5.934;2023-07-08T16:03:29;3.42;;;2.13;;
38479;SDS011;62333;51.980;5.934;2023-07-08T16:05:57;4.38;;;1.98;;
38479;SDS011;62333;51.980;5.934;2023-07-08T16:08:23;3.83;;;1.85;;